Time;durP1;ratioP1;P1;durP2;ratioP2;P2;SDS_P1;SDS_P2;PMS_P1;PMS_P2;Temp;Humidity;BMP_temperature;BMP_pressure;BME280_temperature;BME280_humidity;BME280_pressure;Samples;Min_cycle;Max_cycle;Signal;HPM_P1;HPM_P2
2021/08/18 00:03:01;;;;;;;5.45;1.92;;;15.50;99.90;;;;;;5956068;23;20028;-84
2021/08/18 00:06:02;;;;;;;4.35;1.98;;;15.50;99.90;;;;;;5936072;23;20028;-83
2021/08/18 00:09:03;;;;;;;11.95;2.25;;;15.40;99.90;;;;;;5896038;24;20029;-81
2021/08/18 00:11:48;;;;;;;;;;;15.40;99.90;;;;;;5917878;24;20079;-83
2021/08/18 00:17:58;;;;;;;;;;;;;;;;;;;;;
2021/08/18 00:21:27;;;;;;;5.78;1.73;;;15.40;99.90;;;;;;5937001;23;20333;-84
2021/08/18 00:24:16;;;;;;;4.40;1.98;;;15.40;99.90;;;;;;6019400;23;20467;-84
2021/08/18 00:27:25;;;;;;;4.88;1.70;;;15.40;99.90;;;;;;5986255;23;20023;-83
2021/08/18 00:30:28;;;;;;;5.05;1.85;;;15.40;99.90;;;;;;6046117;23;20527;-82
2021/08/18 00:33:18;;;;;;;7.72;2.05;;;15.40;99.90;;;;;;6053502;23;20410;-83
2021/08/18 00:36:39;;;;;;;;;;;;;;;;;;;;;
2021/08/18 00:39:30;;;;;;;7.10;2.00;;;15.40;99.90;;;;;;6027985;23;20089;-81
2021/08/18 00:42:10;;;;;;;3.60;1.77;;;15.40;99.90;;;;;;6023112;23;20034;-81
2021/08/18 00:45:13;;;;;;;;;;;;;;;;;;;;;
2021/08/18 00:48:14;;;;;;;4.78;1.90;;;15.40;99.90;;;;;;6174439;23;20025;-80
2021/08/18 00:50:52;;;;;;;12.10;2.78;;;15.40;99.90;;;;;;6164006;23;20016;-84
2021/08/18 00:53:54;;;;;;;7.10;2.40;;;15.40;99.90;;;;;;6165173;23;20364;-83
2021/08/18 00:56:28;;;;;;;6.68;2.15;;;15.40;99.90;;;;;;6196770;23;20028;-82
2021/08/18 00:59:04;;;;;;;6.53;2.08;;;15.40;99.90;;;;;;6195567;23;20096;-82
2021/08/18 01:01:42;;;;;;;5.93;2.05;;;15.40;99.90;;;;;;6142878;23;20092;-83
2021/08/18 01:04:24;;;;;;;8.73;1.88;;;15.40;99.90;;;;;;6184433;23;20103;-80
2021/08/18 01:07:34;;;;;;;4.88;1.88;;;15.40;99.90;;;;;;6065251;23;20026;-84
2021/08/18 01:10:23;;;;;;;7.63;2.15;;;15.40;99.90;;;;;;6071605;23;20065;-82
2021/08/18 01:13:10;;;;;;;5.90;2.20;;;15.40;99.90;;;;;;6075855;23;20014;-84
2021/08/18 01:16:26;;;;;;;3.67;2.20;;;15.40;99.90;;;;;;6081492;23;20053;-84
2021/08/18 01:19:28;;;;;;;6.22;2.08;;;15.40;99.90;;;;;;6075554;23;20022;-81
2021/08/18 01:22:40;;;;;;;;;;;;;;;;;;;;;
2021/08/18 01:25:16;;;;;;;4.75;1.90;;;15.40;99.90;;;;;;6077637;23;20393;-84
2021/08/18 01:28:01;;;;;;;6.07;2.38;;;15.40;99.90;;;;;;6218214;23;20384;-81
2021/08/18 01:30:52;;;;;;;;;;;;;;;;;;;;;
2021/08/18 01:33:28;;;;;;;7.35;1.95;;;15.40;99.90;;;;;;6186567;22;20021;-83
2021/08/18 01:36:39;;;;;;;4.60;2.05;;;15.50;99.90;;;;;;6150768;23;20087;-84
2021/08/18 01:39:53;;;;;;;5.10;2.00;;;15.50;99.90;;;;;;6102476;23;20347;-83
2021/08/18 01:42:54;;;;;;;8.23;2.10;;;15.50;99.90;;;;;;6124109;23;20022;-82
2021/08/18 01:46:10;;;;;;;;;;;;;;;;;;;;;
2021/08/18 01:49:00;;;;;;;4.60;2.08;;;15.50;99.90;;;;;;5960744;23;20438;-82
2021/08/18 01:51:53;;;;;;;;;;;;;;;;;;;;;
2021/08/18 01:54:44;;;;;;;;;;;;;;;;;;;;;
2021/08/18 01:57:20;;;;;;;5.10;2.38;;;15.40;99.90;;;;;;6024418;23;20045;-83
2021/08/18 02:00:10;;;;;;;4.68;2.38;;;15.40;99.90;;;;;;6079592;23;20440;-82
2021/08/18 02:03:17;;;;;;;4.60;1.90;;;15.40;99.90;;;;;;6053795;23;20029;-82
2021/08/18 02:06:37;;;;;;;;;;;;;;;;;;;;;
2021/08/18 02:09:28;;;;;;;4.07;1.83;;;15.40;99.90;;;;;;5950009;24;20028;-83
2021/08/18 02:12:28;;;;;;;4.93;1.80;;;15.40;99.90;;;;;;5948021;24;20022;-83
2021/08/18 02:15:34;;;;;;;5.97;2.15;;;15.40;99.90;;;;;;5930243;24;20028;-81
2021/08/18 02:18:15;;;;;;;7.80;1.92;;;15.40;99.90;;;;;;5935204;24;20020;-82
2021/08/18 02:20:53;;;;;;;5.32;1.90;;;15.40;99.90;;;;;;5964401;24;20068;-81
2021/08/18 02:23:31;;;;;;;5.10;2.08;;;15.40;99.90;;;;;;5979704;23;21705;-81
2021/08/18 02:26:17;;;;;;;6.72;2.30;;;15.40;99.90;;;;;;6207079;23;20012;-82
2021/08/18 02:28:53;;;;;;;7.30;2.22;;;15.40;99.90;;;;;;6206113;23;20095;-84
2021/08/18 02:31:29;;;;;;;6.65;2.17;;;15.30;99.90;;;;;;6214082;22;20374;-80
2021/08/18 02:34:08;;;;;;;7.88;2.08;;;15.30;99.90;;;;;;6243516;22;20456;-83
2021/08/18 02:37:09;;;;;;;;;;;;;;;;;;;;;
2021/08/18 02:40:09;;;;;;;5.95;2.20;;;15.30;99.90;;;;;;6180383;22;20027;-80
2021/08/18 02:43:15;;;;;;;;;;;;;;;;;;;;;
2021/08/18 02:46:18;;;;;;;7.40;1.80;;;15.30;99.90;;;;;;6092107;23;20049;-84
2021/08/18 02:49:01;;;;;;;7.43;2.43;;;15.30;99.90;;;;;;6112502;23;20021;-83
2021/08/18 02:51:40;;;;;;;6.55;2.35;;;15.30;99.90;;;;;;6163481;23;20531;-83
2021/08/18 02:54:17;;;;;;;4.65;1.90;;;15.30;99.90;;;;;;6199735;22;20024;-80
2021/08/18 02:56:53;;;;;;;2.63;1.92;;;15.30;99.90;;;;;;6232235;22;20043;-83
2021/08/18 02:59:41;;;;;;;4.85;2.30;;;15.30;99.90;;;;;;6211825;22;20016;-85
2021/08/18 03:02:56;;;;;;;5.80;2.10;;;15.30;99.90;;;;;;6147915;22;20026;-83
2021/08/18 03:05:33;;;;;;;5.90;2.20;;;15.20;99.90;;;;;;6202281;23;20473;-83
2021/08/18 03:08:00;;;;;;;5.30;2.38;;;15.20;99.90;;;;;;6226743;22;20012;-82
2021/08/18 03:10:53;;;;;;;;;;;;;;;;;;;;;
2021/08/18 03:13:29;;;;;;;5.00;1.90;;;15.20;99.90;;;;;;6166961;22;20024;-82
2021/08/18 03:20:34;;;;;;;;;;;;;;;;;;;;;
2021/08/18 03:27:03;;;;;;;;;;;;;;;;;;;;;
2021/08/18 03:29:31;;;;;;;10.85;2.50;;;15.20;99.90;;;;;;5848472;24;20384;-83
2021/08/18 03:32:16;;;;;;;;;;;;;;;;;;;;;
2021/08/18 03:35:08;;;;;;;6.18;2.40;;;15.20;99.90;;;;;;5797806;24;20022;-83
2021/08/18 03:37:36;;;;;;;6.60;2.30;;;15.20;99.90;;;;;;5819930;24;20344;-82
2021/08/18 03:40:52;;;;;;;;;;;;;;;;;;;;;
2021/08/18 03:44:20;;;;;;;3.70;1.95;;;15.20;99.90;;;;;;5782740;24;20068;-83
2021/08/18 03:47:06;;;;;;;6.88;1.95;;;15.10;99.90;;;;;;5856073;24;20495;-83
2021/08/18 03:49:50;;;;;;;6.10;2.10;;;15.10;99.90;;;;;;5815705;24;20317;-84
2021/08/18 03:52:44;;;;;;;6.80;2.22;;;15.10;99.90;;;;;;5870273;24;20130;-84
2021/08/18 03:56:00;;;;;;;;;;;;;;;;;;;;;
2021/08/18 03:58:41;;;;;;;6.82;2.33;;;15.10;99.90;;;;;;5827949;24;20056;-83
2021/08/18 04:01:21;;;;;;;7.13;2.28;;;15.10;99.90;;;;;;5876936;24;20024;-79
2021/08/18 04:03:50;;;;;;;8.05;2.25;;;15.10;99.90;;;;;;5919433;23;20019;-81
2021/08/18 04:06:27;;;;;;;6.50;2.22;;;15.10;99.90;;;;;;5995692;23;20473;-82
2021/08/18 04:09:17;;;;;;;5.43;2.15;;;15.10;99.90;;;;;;6012003;23;20041;-83
2021/08/18 04:12:10;;;;;;;5.97;1.90;;;15.10;99.90;;;;;;5982119;23;20098;-82
2021/08/18 04:14:47;;;;;;;7.63;1.98;;;15.10;99.90;;;;;;5948105;23;20453;-82
2021/08/18 04:17:55;;;;;;;6.20;2.00;;;15.10;99.90;;;;;;5988357;23;20027;-81
2021/08/18 04:21:18;;;;;;;;;;;;;;;;;;;;;
2021/08/18 04:24:19;;;;;;;5.40;1.88;;;15.10;99.90;;;;;;5922746;23;20095;-83
2021/08/18 04:27:23;;;;;;;8.40;2.55;;;15.10;99.90;;;;;;5956908;23;20449;-83
2021/08/18 04:30:20;;;;;;;6.55;2.38;;;15.10;99.90;;;;;;6024736;23;20082;-84
2021/08/18 04:33:14;;;;;;;5.38;1.90;;;15.10;99.90;;;;;;6020042;23;20065;-84
2021/08/18 04:36:07;;;;;;;;;;;;;;;;;;;;;
2021/08/18 04:39:52;;;;;;;;;;;;;;;;;;;;;
2021/08/18 04:43:00;;;;;;;;;;;;;;;;;;;;;
2021/08/18 04:50:30;;;;;;;6.65;2.40;;;15.10;99.90;;;;;;5833468;24;20029;-83
2021/08/18 04:53:49;;;;;;;;;;;;;;;;;;;;;
2021/08/18 05:11:14;;;;;;;6.45;2.78;;;15.10;99.90;;;;;;4931174;27;3569830;-83
2021/08/18 05:17:44;;;;;;;7.93;2.90;;;15.00;99.90;;;;;;4881854;29;20815;-81
2021/08/18 05:24:40;;;;;;;;;;;;;;;;;;;;;
2021/08/18 05:27:42;;;;;;;;;;;;;;;;;;;;;
2021/08/18 05:30:30;;;;;;;;;;;;;;;;;;;;;
2021/08/18 05:33:26;;;;;;;5.63;2.60;;;15.10;99.90;;;;;;4769269;29;20039;-81
2021/08/18 05:53:08;;;;;;;;;;;;;;;;;;;;;
2021/08/18 06:00:06;;;;;;;;;;;;;;;;;;;;;
2021/08/18 06:03:03;;;;;;;;;;;;;;;;;;;;;
2021/08/18 06:16:16;;;;;;;5.05;2.28;;;15.30;99.90;;;;;;4539483;27;14042918;-83
2021/08/18 06:19:04;;;;;;;6.25;2.10;;;15.30;99.90;;;;;;5016557;28;20107;-84
2021/08/18 06:22:36;;;;;;;;;;;;;;;;;;;;;
2021/08/18 06:26:07;;;;;;;;;;;;;;;;;;;;;
2021/08/18 06:29:28;;;;;;;;;;;;;;;;;;;;;
2021/08/18 06:32:19;;;;;;;;;;;;;;;;;;;;;
2021/08/18 06:35:03;;;;;;;9.10;2.33;;;15.50;99.90;;;;;;4806196;29;20047;-81
2021/08/18 06:41:15;;;;;;;;;;;;;;;;;;;;;
2021/08/18 06:48:07;;;;;;;;;;;;;;;;;;;;;
2021/08/18 06:51:15;;;;;;;5.55;2.80;;;15.70;99.90;;;;;;4788400;29;20045;-83
2021/08/18 06:54:10;;;;;;;6.72;2.83;;;15.70;99.90;;;;;;4759392;29;20049;-83
2021/08/18 06:57:01;;;;;;;;;;;;;;;;;;;;;
2021/08/18 07:44:50;;;;;;;6.93;3.80;;;16.60;99.90;;;;;;4856527;22;29182229;-84
2021/08/18 07:47:56;;;;;;;7.32;3.47;;;16.60;99.90;;;;;;5960535;23;20030;-84
2021/08/18 07:51:05;;;;;;;;;;;;;;;;;;;;;
2021/08/18 07:57:26;;;;;;;;;;;;;;;;;;;;;
2021/08/18 08:03:12;;;;;;;;;;;;;;;;;;;;;
2021/08/18 08:16:51;;;;;;;3.60;1.73;;;17.00;99.90;;;;;;6021938;22;6893449;-83
2021/08/18 08:20:15;;;;;;;2.85;1.67;;;17.00;99.90;;;;;;6222563;22;20443;-84
2021/08/18 08:26:37;;;;;;;3.58;1.60;;;17.00;99.90;;;;;;6211585;22;20053;-83
2021/08/18 08:29:49;;;;;;;4.50;1.70;;;17.00;99.90;;;;;;6166635;23;20024;-83
2021/08/18 08:33:02;;;;;;;;;;;;;;;;;;;;;
2021/08/18 08:35:53;;;;;;;5.10;1.75;;;17.10;99.90;;;;;;5969808;23;20525;-82
2021/08/18 08:38:37;;;;;;;5.38;1.80;;;17.10;99.90;;;;;;6042597;23;20408;-83
2021/08/18 08:41:41;;;;;;;4.07;1.70;;;17.20;99.90;;;;;;6022400;23;20038;-81
2021/08/18 08:44:48;;;;;;;;;;;;;;;;;;;;;
2021/08/18 08:47:58;;;;;;;5.35;1.55;;;17.50;99.90;;;;;;6010200;23;20027;-83
2021/08/18 08:51:05;;;;;;;5.53;1.50;;;17.60;99.90;;;;;;6056708;23;20020;-83
2021/08/18 08:54:40;;;;;;;;;;;;;;;;;;;;;
2021/08/18 08:57:37;;;;;;;6.43;1.65;;;17.70;99.90;;;;;;5992216;23;20015;-84
2021/08/18 09:00:28;;;;;;;4.03;1.58;;;17.70;99.90;;;;;;6076936;23;20028;-80
2021/08/18 09:03:20;;;;;;;3.25;1.35;;;17.70;99.90;;;;;;6060112;23;20561;-82
2021/08/18 09:06:08;;;;;;;4.93;1.38;;;17.60;99.90;;;;;;6009348;23;20076;-84
2021/08/18 09:08:56;;;;;;;2.67;1.70;;;17.70;99.90;;;;;;6096909;23;20087;-83
2021/08/18 09:11:36;;;;;;;3.67;1.20;;;17.70;99.90;;;;;;6050858;23;20028;-83
2021/08/18 09:14:30;;;;;;;2.78;1.10;;;17.60;99.90;;;;;;6100306;23;20176;-83
2021/08/18 09:17:02;;;;;;;2.35;1.15;;;17.60;99.90;;;;;;6115246;23;20025;-83
2021/08/18 09:19:38;;;;;;;3.33;1.27;;;17.60;99.90;;;;;;6127147;23;20040;-83
2021/08/18 09:22:41;;;;;;;3.67;1.40;;;17.60;99.90;;;;;;6085382;23;20026;-83
2021/08/18 09:25:27;;;;;;;2.25;1.15;;;17.70;99.90;;;;;;6108378;23;20092;-83
2021/08/18 09:28:17;;;;;;;2.50;0.85;;;17.70;99.90;;;;;;6117929;23;20063;-83
2021/08/18 09:30:56;;;;;;;3.70;1.27;;;17.70;99.90;;;;;;6151988;22;20062;-80
2021/08/18 09:33:43;;;;;;;1.92;0.82;;;17.80;99.90;;;;;;6200144;23;20033;-83
2021/08/18 09:36:46;;;;;;;2.05;1.00;;;17.80;99.90;;;;;;6185755;23;20034;-85
2021/08/18 09:39:28;;;;;;;2.38;1.10;;;17.90;99.90;;;;;;6172862;23;20373;-81
2021/08/18 09:42:43;;;;;;;3.10;0.93;;;17.90;99.90;;;;;;6161455;23;20103;-83
2021/08/18 09:45:26;;;;;;;1.38;0.90;;;17.90;99.90;;;;;;6157757;23;20390;-84
2021/08/18 09:48:22;;;;;;;1.83;0.63;;;17.90;99.90;;;;;;6220916;22;20020;-83
2021/08/18 09:51:18;;;;;;;2.55;0.80;;;18.00;99.90;;;;;;6223485;23;20024;-84
2021/08/18 09:54:32;;;;;;;;;;;;;;;;;;;;;
2021/08/18 09:57:15;;;;;;;4.03;1.63;;;18.20;99.90;;;;;;5991606;23;20437;-84
2021/08/18 10:00:37;;;;;;;3.47;1.38;;;18.20;99.90;;;;;;5822819;24;20109;-83
2021/08/18 10:03:21;;;;;;;5.18;1.63;;;18.30;99.90;;;;;;5826746;24;20052;-84
2021/08/18 10:06:17;;;;;;;3.92;1.65;;;18.30;99.90;;;;;;5860010;24;20087;-82
2021/08/18 10:09:12;;;;;;;8.68;1.50;;;18.30;99.90;;;;;;5816165;24;20322;-85
2021/08/18 10:11:59;;;;;;;3.35;1.70;;;18.30;99.90;;;;;;5874973;24;20044;-84
2021/08/18 10:14:32;;;;;;;3.55;1.42;;;18.30;99.90;;;;;;5883204;24;20414;-84
2021/08/18 10:16:59;;;;;;;4.63;1.83;;;18.40;99.90;;;;;;5937327;23;20095;-82
2021/08/18 10:19:40;;;;;;;5.10;1.47;;;18.40;99.90;;;;;;5999960;23;20034;-84
2021/08/18 10:22:17;;;;;;;4.28;1.58;;;18.50;99.90;;;;;;5999549;23;20252;-82
2021/08/18 10:25:27;;;;;;;4.38;1.75;;;18.50;99.90;;;;;;6045785;23;20021;-84
2021/08/18 10:28:21;;;;;;;;;;;;;;;;;;;;;
2021/08/18 10:30:55;;;;;;;4.40;2.00;;;18.50;99.90;;;;;;6224017;22;20020;-82
2021/08/18 10:33:50;;;;;;;4.38;2.15;;;18.50;99.90;;;;;;6217693;22;20284;-83
2021/08/18 10:36:43;;;;;;;3.72;1.83;;;18.40;99.90;;;;;;6170699;23;20020;-83
2021/08/18 10:39:43;;;;;;;4.40;1.75;;;18.40;99.90;;;;;;6217662;22;20016;-83
2021/08/18 10:42:34;;;;;;;6.63;2.10;;;18.30;99.90;;;;;;6215090;22;20023;-83
2021/08/18 10:45:36;;;;;;;7.07;1.80;;;18.40;99.90;;;;;;6233849;22;20024;-82
2021/08/18 10:48:08;;;;;;;4.75;2.00;;;18.40;99.90;;;;;;6058433;23;20022;-83
2021/08/18 10:51:01;;;;;;;;;;;;;;;;;;;;;
2021/08/18 10:53:37;;;;;;;5.07;2.05;;;18.50;99.90;;;;;;6108373;23;20046;-83
2021/08/18 10:56:48;;;;;;;4.65;1.90;;;18.50;99.90;;;;;;6011395;23;20053;-83
2021/08/18 10:59:45;;;;;;;6.43;1.85;;;18.60;99.90;;;;;;6010537;23;20552;-83
2021/08/18 11:03:22;;;;;;;;;;;;;;;;;;;;;
2021/08/18 11:06:01;;;;;;;3.13;1.65;;;18.80;99.90;;;;;;5987954;23;20400;-80
2021/08/18 11:08:55;;;;;;;;;;;;;;;;;;;;;
2021/08/18 11:11:52;;;;;;;5.75;1.48;;;18.80;99.90;;;;;;5972991;23;20023;-83
2021/08/18 11:14:44;;;;;;;3.88;1.70;;;18.90;99.90;;;;;;6022857;23;20096;-82
2021/08/18 11:17:30;;;;;;;;;;;;;;;;;;;;;
2021/08/18 11:20:40;;;;;;;6.43;1.70;;;19.00;99.90;;;;;;6096335;23;20021;-82
2021/08/18 11:26:26;;;;;;;5.35;1.48;;;19.00;99.90;;;;;;6201625;23;20020;-83
2021/08/18 11:29:29;;;;;;;5.47;1.80;;;19.00;99.90;;;;;;6159015;23;20349;-83
2021/08/18 11:32:10;;;;;;;6.80;1.40;;;19.10;99.90;;;;;;6077417;23;20044;-83
2021/08/18 11:35:02;;;;;;;4.13;1.38;;;19.20;99.90;;;;;;6073648;23;20057;-82
2021/08/18 11:37:59;;;;;;;2.80;1.40;;;19.10;99.90;;;;;;6110908;23;20454;-82
2021/08/18 11:40:52;;;;;;;;;;;;;;;;;;;;;
2021/08/18 11:43:49;;;;;;;4.40;1.55;;;19.00;99.90;;;;;;6109757;23;20461;-83
2021/08/18 11:50:06;;;;;;;5.55;1.40;;;18.80;99.90;;;;;;6116883;23;19920;-83
2021/08/18 11:52:38;;;;;;;4.80;1.67;;;18.70;99.90;;;;;;6068823;23;20097;-82
2021/08/18 11:55:10;;;;;;;4.80;1.27;;;18.60;99.90;;;;;;6075760;23;20136;-83
2021/08/18 11:57:53;;;;;;;7.60;1.83;;;18.60;99.90;;;;;;6089988;23;20126;-82
2021/08/18 12:00:35;;;;;;;5.15;1.63;;;18.50;99.90;;;;;;6072851;23;20022;-84
2021/08/18 12:03:19;;;;;;;;;;;;;;;;;;;;;
2021/08/18 12:06:08;;;;;;;5.10;1.38;;;18.40;99.90;;;;;;6237963;22;20077;-81
2021/08/18 12:08:59;;;;;;;3.97;1.75;;;18.30;99.90;;;;;;6230086;23;20034;-84
2021/08/18 12:11:39;;;;;;;5.00;1.63;;;18.30;99.90;;;;;;6208429;22;20027;-84
2021/08/18 12:14:28;;;;;;;;;;;;;;;;;;;;;
2021/08/18 12:17:20;;;;;;;4.95;1.48;;;18.40;99.90;;;;;;6236019;22;20251;-82
2021/08/18 12:19:59;;;;;;;3.20;1.10;;;18.40;99.90;;;;;;6219481;22;20325;-83
2021/08/18 12:22:52;;;;;;;4.00;1.40;;;18.40;99.90;;;;;;6217004;22;20424;-82
2021/08/18 12:25:52;;;;;;;4.18;1.50;;;18.50;99.90;;;;;;6223907;22;20017;-83
2021/08/18 12:28:34;;;;;;;3.53;1.70;;;18.50;99.90;;;;;;6226058;22;20027;-82
2021/08/18 12:31:09;;;;;;;4.38;1.40;;;18.50;99.90;;;;;;6242858;23;20020;-80
2021/08/18 12:33:54;;;;;;;;;;;;;;;;;;;;;
2021/08/18 12:36:59;;;;;;;3.72;1.50;;;18.50;99.90;;;;;;6242352;22;20444;-83
2021/08/18 12:39:52;;;;;;;2.78;1.20;;;18.50;99.90;;;;;;6230916;22;20023;-80
2021/08/18 12:42:35;;;;;;;2.70;1.20;;;18.50;99.90;;;;;;6227732;22;20047;-83
2021/08/18 12:45:19;;;;;;;2.88;1.20;;;18.50;99.90;;;;;;6220650;22;20066;-83
2021/08/18 12:47:59;;;;;;;3.47;1.38;;;18.50;99.90;;;;;;6242611;23;20103;-83
2021/08/18 12:50:37;;;;;;;2.70;1.25;;;18.50;99.90;;;;;;6228559;22;20074;-83
2021/08/18 12:53:16;;;;;;;;;;;;;;;;;;;;;
2021/08/18 12:55:48;;;;;;;2.70;1.17;;;18.60;99.90;;;;;;6245767;22;20099;-82
2021/08/18 12:58:25;;;;;;;3.15;1.20;;;18.60;99.90;;;;;;6231707;22;20074;-83
2021/08/18 13:01:01;;;;;;;5.53;1.17;;;18.70;99.90;;;;;;6231760;23;20507;-82
2021/08/18 13:03:38;;;;;;;2.78;1.25;;;18.70;99.90;;;;;;6184786;22;20019;-84
2021/08/18 13:06:14;;;;;;;3.30;1.10;;;18.70;99.90;;;;;;6233958;22;20069;-83
2021/08/18 13:08:41;;;;;;;2.05;0.80;;;18.70;99.90;;;;;;6231791;23;20070;-83
2021/08/18 13:11:08;;;;;;;3.20;0.95;;;18.70;99.90;;;;;;6213916;22;20332;-84
2021/08/18 13:13:40;;;;;;;2.53;0.93;;;18.80;99.90;;;;;;6207811;23;20344;-83
2021/08/18 13:16:11;;;;;;;2.78;1.10;;;18.80;99.90;;;;;;6229188;22;20028;-83
2021/08/18 13:18:55;;;;;;;;;;;;;;;;;;;;;
2021/08/18 13:21:40;;;;;;;2.38;1.10;;;18.80;99.90;;;;;;6212741;22;20020;-84
2021/08/18 13:24:18;;;;;;;2.10;1.05;;;18.80;99.90;;;;;;6214851;22;20015;-82
2021/08/18 13:26:50;;;;;;;5.03;0.93;;;18.80;99.90;;;;;;6233773;22;20012;-82
2021/08/18 13:29:57;;;;;;;1.85;0.93;;;18.90;99.90;;;;;;6229602;22;20020;-82
2021/08/18 13:32:30;;;;;;;2.05;0.80;;;18.80;99.90;;;;;;6226161;22;20111;-84
2021/08/18 13:35:21;;;;;;;2.88;1.00;;;18.80;99.90;;;;;;6217368;22;20016;-83
2021/08/18 13:37:48;;;;;;;2.20;0.98;;;18.80;99.90;;;;;;6203901;23;20082;-80
2021/08/18 13:40:27;;;;;;;3.17;0.80;;;18.80;99.90;;;;;;6218099;22;20077;-81
2021/08/18 13:43:07;;;;;;;2.40;0.82;;;18.80;99.90;;;;;;6219294;23;20020;-82
2021/08/18 13:45:57;;;;;;;1.50;0.88;;;18.80;99.90;;;;;;6213666;22;20043;-81
2021/08/18 13:48:31;;;;;;;2.97;0.90;;;18.80;99.90;;;;;;6103261;23;20524;-83
2021/08/18 13:51:05;;;;;;;0.90;0.70;;;18.80;99.90;;;;;;6115327;23;20021;-84
2021/08/18 13:53:39;;;;;;;2.80;0.80;;;18.70;99.90;;;;;;6115655;23;20021;-83
2021/08/18 13:56:06;;;;;;;1.65;0.65;;;18.60;99.90;;;;;;6099802;23;20017;-83
2021/08/18 13:58:35;;;;;;;3.35;0.90;;;18.60;99.90;;;;;;6094611;23;20415;-82
2021/08/18 14:01:03;;;;;;;2.38;0.90;;;18.50;99.90;;;;;;6109500;23;20013;-83
2021/08/18 14:03:38;;;;;;;1.70;0.60;;;18.50;99.90;;;;;;6127420;23;20100;-82
2021/08/18 14:06:16;;;;;;;1.70;0.80;;;18.40;99.90;;;;;;6118700;23;20445;-82
2021/08/18 14:08:47;;;;;;;2.92;1.00;;;18.50;99.90;;;;;;6136118;23;20021;-82
2021/08/18 14:11:14;;;;;;;2.25;0.98;;;18.40;99.90;;;;;;6108185;23;20025;-81
2021/08/18 14:13:44;;;;;;;2.13;0.90;;;18.40;99.90;;;;;;6084219;23;20104;-83
2021/08/18 14:16:16;;;;;;;1.95;0.73;;;18.50;99.90;;;;;;6114151;23;20029;-81
2021/08/18 14:18:43;;;;;;;3.88;1.25;;;18.60;99.90;;;;;;6150006;23;20016;-82
2021/08/18 14:21:17;;;;;;;2.33;1.00;;;18.60;99.90;;;;;;6190497;23;20091;-83
2021/08/18 14:23:44;;;;;;;4.40;0.95;;;18.60;99.90;;;;;;6233734;23;20024;-83
2021/08/18 14:26:13;;;;;;;2.40;1.13;;;18.50;99.90;;;;;;6242996;22;20104;-84
2021/08/18 14:28:44;;;;;;;5.07;1.20;;;18.50;99.90;;;;;;6243598;23;20040;-82
2021/08/18 14:31:11;;;;;;;3.17;1.38;;;18.40;99.90;;;;;;6231190;22;20027;-83
2021/08/18 14:33:39;;;;;;;2.25;0.82;;;18.40;99.90;;;;;;6231386;23;20492;-82
2021/08/18 14:36:10;;;;;;;2.35;0.75;;;18.40;99.90;;;;;;6242643;22;20020;-83
2021/08/18 14:38:41;;;;;;;2.20;0.82;;;18.30;99.90;;;;;;6243246;23;20030;-80
2021/08/18 14:41:09;;;;;;;2.42;0.90;;;18.30;99.90;;;;;;6229113;22;20055;-83
2021/08/18 14:43:36;;;;;;;3.07;0.87;;;18.20;99.90;;;;;;6243893;23;20535;-80
2021/08/18 14:46:03;;;;;;;4.38;1.08;;;18.20;99.90;;;;;;6231838;22;20387;-79
2021/08/18 14:48:30;;;;;;;3.92;1.00;;;18.20;99.90;;;;;;6242237;23;20380;-82
2021/08/18 14:50:58;;;;;;;3.25;0.80;;;18.20;99.90;;;;;;6243427;23;20024;-83
2021/08/18 14:53:26;;;;;;;2.17;0.70;;;18.20;99.90;;;;;;6242597;22;20020;-83
2021/08/18 14:55:57;;;;;;;2.45;1.02;;;18.20;99.90;;;;;;6243169;23;20016;-81
2021/08/18 14:58:28;;;;;;;2.88;0.80;;;18.20;99.90;;;;;;6241928;22;20024;-83
2021/08/18 15:00:55;;;;;;;2.80;0.80;;;18.20;99.90;;;;;;6243339;23;20016;-81
2021/08/18 15:03:23;;;;;;;;;;;18.20;99.90;;;;;;6230847;22;20028;-83
2021/08/18 15:05:51;;;;;;;2.20;0.90;;;18.10;99.90;;;;;;6243157;23;19916;-83
2021/08/18 15:08:20;;;;;;;2.50;0.70;;;18.10;99.90;;;;;;6230470;22;20016;-82
2021/08/18 15:10:48;;;;;;;3.55;0.60;;;18.10;99.90;;;;;;6243480;23;20024;-82
2021/08/18 15:13:15;;;;;;;1.33;0.90;;;18.10;99.90;;;;;;6229294;22;20031;-83
2021/08/18 15:15:42;;;;;;;0.82;0.60;;;18.20;99.90;;;;;;6242677;23;20095;-83
2021/08/18 15:18:09;;;;;;;0.90;0.73;;;18.20;99.90;;;;;;6241692;22;20027;-82
2021/08/18 15:20:36;;;;;;;1.25;0.77;;;18.20;99.90;;;;;;6242855;23;20016;-83
2021/08/18 15:23:05;;;;;;;1.95;1.17;;;18.20;99.90;;;;;;6243519;23;20024;-83
2021/08/18 15:25:32;;;;;;;2.90;0.90;;;18.20;99.90;;;;;;6241474;23;20027;-80
2021/08/18 15:28:02;;;;;;;1.38;0.90;;;18.20;99.90;;;;;;6243418;23;20020;-82
2021/08/18 15:30:33;;;;;;;2.65;0.90;;;18.20;99.90;;;;;;6202475;23;20057;-81
2021/08/18 15:33:05;;;;;;;1.63;0.90;;;18.30;99.90;;;;;;6229008;23;20354;-82
2021/08/18 15:35:33;;;;;;;0.80;0.80;;;18.30;99.90;;;;;;6242096;23;20028;-84
2021/08/18 15:38:01;;;;;;;1.80;0.90;;;18.40;99.90;;;;;;6219484;23;20066;-83
2021/08/18 15:40:33;;;;;;;0.93;0.80;;;18.50;99.90;;;;;;6232506;22;20020;-82
2021/08/18 15:43:10;;;;;;;2.83;0.95;;;18.50;99.90;;;;;;6220695;23;20447;-79
2021/08/18 15:45:42;;;;;;;1.48;0.70;;;18.60;99.90;;;;;;6234923;22;20023;-83
2021/08/18 15:48:10;;;;;;;1.45;0.80;;;18.60;99.90;;;;;;6229695;22;20097;-82
2021/08/18 15:50:43;;;;;;;0.95;0.65;;;18.70;99.90;;;;;;6242593;23;20024;-82
2021/08/18 15:53:17;;;;;;;1.27;0.90;;;18.70;99.90;;;;;;6216306;22;20386;-82
2021/08/18 15:55:48;;;;;;;1.65;0.60;;;18.70;99.90;;;;;;6233024;23;20500;-82
2021/08/18 15:58:19;;;;;;;1.38;0.70;;;18.70;99.90;;;;;;6241533;22;20040;-80
2021/08/18 16:00:49;;;;;;;3.50;0.90;;;18.60;99.90;;;;;;6242887;23;20017;-84
2021/08/18 16:03:16;;;;;;;1.20;0.80;;;18.70;99.90;;;;;;6232126;22;20053;-83
2021/08/18 16:05:45;;;;;;;1.27;0.80;;;18.60;99.90;;;;;;6242639;23;20042;-82
2021/08/18 16:08:18;;;;;;;1.13;0.90;;;18.60;99.90;;;;;;6241547;22;20052;-83
2021/08/18 16:10:45;;;;;;;2.00;0.73;;;18.60;99.90;;;;;;6233681;22;20026;-82
2021/08/18 16:13:16;;;;;;;1.30;0.73;;;18.60;99.90;;;;;;6218615;23;20016;-83
2021/08/18 16:15:43;;;;;;;1.27;0.85;;;18.70;99.90;;;;;;6242592;23;20028;-83
2021/08/18 16:18:13;;;;;;;1.55;0.93;;;18.70;99.90;;;;;;6242196;22;20023;-83
2021/08/18 16:20:43;;;;;;;0.93;0.70;;;18.70;99.90;;;;;;6243039;23;20020;-83
2021/08/18 16:23:21;;;;;;;1.40;0.73;;;18.50;99.90;;;;;;6229073;22;20086;-83
2021/08/18 16:25:49;;;;;;;1.45;0.82;;;18.30;99.90;;;;;;6243323;23;20020;-82
2021/08/18 16:28:16;;;;;;;1.20;0.77;;;18.30;99.90;;;;;;6219802;22;20020;-80
2021/08/18 16:30:43;;;;;;;1.27;1.00;;;18.10;99.90;;;;;;6244302;23;20043;-83
2021/08/18 16:33:12;;;;;;;4.07;1.10;;;18.10;99.90;;;;;;6243490;22;20312;-81
2021/08/18 16:35:42;;;;;;;1.45;1.17;;;18.10;99.90;;;;;;6244814;23;20043;-83
2021/08/18 16:38:12;;;;;;;4.10;1.35;;;18.00;99.90;;;;;;6230228;22;20016;-83
2021/08/18 16:40:39;;;;;;;3.30;1.40;;;18.00;99.90;;;;;;6231494;23;20384;-82
2021/08/18 16:43:27;;;;;;;2.80;1.40;;;18.00;99.90;;;;;;6243292;22;20040;-82
2021/08/18 16:45:57;;;;;;;1.92;1.40;;;18.00;99.90;;;;;;6244342;23;20020;-83
2021/08/18 16:48:25;;;;;;;2.72;1.40;;;18.00;99.90;;;;;;6231108;22;20449;-83
2021/08/18 16:50:54;;;;;;;1.75;1.35;;;17.90;99.90;;;;;;6233566;22;20320;-83
2021/08/18 16:53:24;;;;;;;4.22;1.30;;;17.80;99.90;;;;;;6243099;22;20433;-83
2021/08/18 16:55:58;;;;;;;2.42;1.15;;;17.70;99.90;;;;;;6244636;23;20031;-82
2021/08/18 16:58:26;;;;;;;3.85;1.52;;;17.60;99.90;;;;;;6243050;22;20024;-83
2021/08/18 17:00:53;;;;;;;4.13;1.58;;;17.50;99.90;;;;;;6244900;23;20018;-83
2021/08/18 17:03:21;;;;;;;3.47;1.40;;;17.50;99.90;;;;;;6243642;22;20046;-79
2021/08/18 17:05:49;;;;;;;3.30;1.73;;;17.50;99.90;;;;;;6244016;23;20042;-81
2021/08/18 17:08:16;;;;;;;3.05;1.45;;;17.40;99.90;;;;;;6243686;22;20022;-80
2021/08/18 17:10:43;;;;;;;3.50;1.58;;;17.50;99.90;;;;;;6244832;23;20078;-83
2021/08/18 17:13:10;;;;;;;2.92;1.50;;;17.40;99.90;;;;;;6243304;22;20340;-82
2021/08/18 17:15:37;;;;;;;3.25;1.60;;;17.40;99.90;;;;;;6244363;23;20032;-83
2021/08/18 17:18:04;;;;;;;2.88;1.50;;;17.40;99.90;;;;;;6243358;22;20444;-80
2021/08/18 17:20:33;;;;;;;3.00;1.30;;;17.40;99.90;;;;;;6244009;23;20026;-82
2021/08/18 17:23:01;;;;;;;3.00;1.55;;;17.40;99.90;;;;;;6230347;23;20032;-81
2021/08/18 17:25:29;;;;;;;2.38;1.38;;;17.40;99.90;;;;;;6233522;22;20077;-80
2021/08/18 17:27:57;;;;;;;4.28;1.80;;;17.40;99.90;;;;;;6244374;23;20072;-81
2021/08/18 17:30:25;;;;;;;3.47;1.60;;;17.40;99.90;;;;;;6243277;22;20019;-82
2021/08/18 17:32:54;;;;;;;4.43;1.60;;;17.40;99.90;;;;;;6244637;23;20348;-83
2021/08/18 17:35:22;;;;;;;5.00;1.80;;;17.40;99.90;;;;;;6243209;22;20016;-82
2021/08/18 17:37:50;;;;;;;3.58;1.60;;;17.30;99.90;;;;;;6233193;22;20504;-80
2021/08/18 17:40:22;;;;;;;3.75;1.60;;;17.30;99.90;;;;;;6243099;22;20074;-83
2021/08/18 17:42:51;;;;;;;1.88;1.38;;;17.30;99.90;;;;;;6243856;23;20058;-83
2021/08/18 17:45:20;;;;;;;4.57;1.60;;;17.20;99.90;;;;;;6218753;22;20058;-83
2021/08/18 17:47:49;;;;;;;2.85;1.65;;;17.10;99.90;;;;;;6224880;23;20020;-83
2021/08/18 17:50:16;;;;;;;4.50;2.05;;;17.10;99.90;;;;;;6240760;22;20044;-83
2021/08/18 17:52:43;;;;;;;4.43;1.85;;;17.10;99.90;;;;;;6244411;23;20016;-81
2021/08/18 17:55:13;;;;;;;2.95;1.42;;;17.10;99.90;;;;;;6233982;22;20026;-83
2021/08/18 17:57:40;;;;;;;3.83;1.50;;;17.10;99.90;;;;;;6215367;23;20024;-82